Fecha, hora, temperatura, viento dirección y velocidad, humedad y presión.

  • 13-12-2019 11:00:00 | 14.90°C | Oeste |26.00 km/h | 80.00% | 998.20 hPa
  • 13-12-2019 10:00:00 | 14.70°C | Oeste |35.00 km/h | 80.00% | 997.70 hPa
  • 13-12-2019 09:00:00 | 14.30°C | Oeste |38.00 km/h | 83.00% | 996.70 hPa
  • 13-12-2019 08:00:00 | 13.80°C | Oeste |31.00 km/h | 88.00% | 996.20 hPa
  • 13-12-2019 07:00:00 | 13.20°C | Oeste |30.00 km/h | 96.00% | 995.20 hPa
  • 13-12-2019 06:00:00 | 14.90°C | Oeste |39.00 km/h | 76.00% | 994.00 hPa
  • 13-12-2019 05:00:00 | 15.60°C | Oeste |46.00 km/h | 70.00% | 993.70 hPa
  • 13-12-2019 04:00:00 | 14.00°C | Oeste |53.00 km/h | 88.00% | 993.90 hPa
  • 13-12-2019 03:00:00 | 15.50°C | Oeste |31.00 km/h | 72.00% | 992.40 hPa
  • 13-12-2019 02:00:00 | 15.00°C | Oeste |43.00 km/h | 77.00% | 992.70 hPa
  • 13-12-2019 01:00:00 | 13.90°C | Oeste |45.00 km/h | 93.00% | 993.30 hPa
  • 13-12-2019 00:00:00 | 13.80°C | Oeste |33.00 km/h | 92.00% | 993.40 hPa
  • 12-12-2019 23:00:00 | 13.50°C | Oeste |47.00 km/h | 97.00% | 993.40 hPa
  • 12-12-2019 22:00:00 | 13.80°C | Oeste |35.00 km/h | 92.00% | 992.40 hPa
  • 12-12-2019 21:00:00 | 13.30°C | Oeste |36.00 km/h | 100.00% | 992.90 hPa
  • 12-12-2019 20:00:00 | 13.60°C | Oeste |32.00 km/h | 94.00% | 992.70 hPa
  • 12-12-2019 19:00:00 | 13.70°C | Oeste |37.00 km/h | 92.00% | 993.20 hPa
  • 12-12-2019 18:00:00 | 13.10°C | Oeste |51.00 km/h | 100.00% | 993.10 hPa
  • 12-12-2019 17:00:00 | 13.30°C | Oeste |46.00 km/h | 97.00% | 992.60 hPa
  • 12-12-2019 16:00:00 | 13.40°C | Oeste |39.00 km/h | 91.00% | 992.20 hPa
  • 12-12-2019 15:00:00 | 13.40°C | Oeste |42.00 km/h | 84.00% | 992.10 hPa
  • 12-12-2019 14:00:00 | 13.50°C | Oeste |47.00 km/h | 77.00% | 992.70 hPa
  • 12-12-2019 13:00:00 | 11.00°C | Sudoeste |34.00 km/h | 85.00% | 993.20 hPa
  • 12-12-2019 12:00:00 | 10.10°C | Sudoeste |35.00 km/h | 82.00% | 994.10 hPa
    • diseño web asturias Información sobre el estado de las mareas, altura de la marejada, temperatura del agua y otros datos de Gijón en Asturias.

      Surf Gijón